Time;durP1;ratioP1;P1;durP2;ratioP2;P2;SDS_P1;SDS_P2;PMS_P1;PMS_P2;Temp;Humidity;BMP_temperature;BMP_pressure;BME280_temperature;BME280_humidity;BME280_pressure;Samples;Min_cycle;Max_cycle;Signal;HPM_P1;HPM_P2
2022/07/11 00:01:09;;;;;;;18.67;6.22;;;;;;;15.61;100.00;102244.38;5052958;28;20112;-64
2022/07/11 00:03:34;;;;;;;17.80;6.10;;;;;;;15.62;100.00;102251.50;5053284;28;20052;-64
2022/07/11 00:05:59;;;;;;;18.52;6.20;;;;;;;15.60;100.00;102243.50;5052812;28;20498;-64
2022/07/11 00:08:25;;;;;;;17.55;6.10;;;;;;;15.55;100.00;102249.66;5052749;28;20017;-64
2022/07/11 00:10:51;;;;;;;17.70;6.10;;;;;;;15.52;100.00;102247.88;5053260;28;20037;-63
2022/07/11 00:13:16;;;;;;;18.60;6.53;;;;;;;15.50;100.00;102247.88;5052719;28;20021;-64
2022/07/11 00:15:41;;;;;;;17.40;6.20;;;;;;;15.44;100.00;102246.94;5052865;28;20052;-62
2022/07/11 00:18:07;;;;;;;17.38;6.03;;;;;;;15.43;100.00;102245.16;5053039;28;20031;-63
2022/07/11 00:20:32;;;;;;;17.73;6.10;;;;;;;15.34;100.00;102246.00;5052747;28;20060;-64
2022/07/11 00:22:57;;;;;;;19.83;6.57;;;;;;;15.29;100.00;102237.97;5050515;28;20116;-64
2022/07/11 00:25:23;;;;;;;20.73;7.68;;;;;;;15.22;100.00;102238.81;5052349;28;20139;-66
2022/07/11 00:27:48;;;;;;;20.45;6.50;;;;;;;15.25;100.00;102233.50;5052508;28;20468;-64
2022/07/11 00:30:14;;;;;;;19.35;6.70;;;;;;;15.22;100.00;102229.91;5052647;28;20075;-63
2022/07/11 00:32:39;;;;;;;19.88;7.15;;;;;;;15.18;100.00;102236.13;5052128;28;20029;-64
2022/07/11 00:35:05;;;;;;;18.30;6.70;;;;;;;15.08;100.00;102224.50;5052376;28;20120;-63
2022/07/11 00:37:30;;;;;;;20.67;6.80;;;;;;;15.00;100.00;102219.13;5052464;28;20059;-63
2022/07/11 00:39:59;;;;;;;18.85;6.88;;;;;;;15.00;100.00;102224.44;5052706;28;20032;-63
2022/07/11 00:42:24;;;;;;;19.55;7.47;;;;;;;14.92;100.00;102224.38;5051854;28;20037;-63
2022/07/11 00:44:49;;;;;;;18.58;6.80;;;;;;;14.88;100.00;102225.25;5052002;28;20091;-65
2022/07/11 00:47:15;;;;;;;20.10;7.20;;;;;;;14.80;100.00;102227.81;5052364;28;20095;-63
2022/07/11 00:49:40;;;;;;;19.52;7.50;;;;;;;14.72;100.00;102226.88;5052101;28;20033;-63
2022/07/11 00:52:06;;;;;;;19.85;7.53;;;;;;;14.70;100.00;102231.28;5052465;28;20027;-64
2022/07/11 00:54:31;;;;;;;18.73;7.00;;;;;;;14.66;100.00;102225.91;5051776;28;20476;-64
2022/07/11 00:56:57;;;;;;;19.83;7.00;;;;;;;14.69;100.00;102218.84;5051240;28;20065;-64
2022/07/11 00:59:22;;;;;;;21.67;8.18;;;;;;;14.66;100.00;102225.91;5049719;28;20033;-63
2022/07/11 01:01:47;;;;;;;18.90;7.10;;;;;;;14.62;100.00;102217.91;5052020;28;20021;-63
2022/07/11 01:04:13;;;;;;;19.70;7.68;;;;;;;14.60;100.00;102216.06;5051521;28;20468;-62
2022/07/11 01:06:38;;;;;;;19.67;7.90;;;;;;;14.62;100.00;102217.91;5052215;28;20036;-63
2022/07/11 01:09:03;;;;;;;18.58;6.80;;;;;;;14.59;100.00;102212.53;5051091;28;20024;-66
2022/07/11 01:11:29;;;;;;;20.17;7.68;;;;;;;14.58;100.00;102215.19;5051861;28;20444;-65
2022/07/11 01:13:54;;;;;;;18.10;6.75;;;;;;;14.51;100.00;102223.97;5050297;28;20099;-65
2022/07/11 01:16:22;;;;;;;20.08;7.38;;;;;;;14.45;100.00;102225.69;5051839;28;20021;-63
2022/07/11 01:18:49;;;;;;;19.08;7.30;;;;;;;14.38;100.00;102217.63;5052219;28;20471;-65
2022/07/11 01:21:21;;;;;;;20.40;7.40;;;;;;;14.38;100.00;102212.31;5051970;28;20029;-64
2022/07/11 01:23:50;;;;;;;22.45;7.72;;;;;;;14.34;100.00;102215.81;5049082;28;20021;-64
2022/07/11 01:26:17;;;;;;;20.73;8.00;;;;;;;14.45;100.00;102214.16;5046965;28;20043;-63
2022/07/11 01:28:43;;;;;;;19.55;7.80;;;;;;;14.42;100.00;102214.13;5051059;28;20029;-64
2022/07/11 01:31:08;;;;;;;19.92;8.18;;;;;;;14.41;100.00;102215.00;5051755;28;20055;-66
2022/07/11 01:33:34;;;;;;;20.08;7.40;;;;;;;14.32;100.00;102222.91;5050418;28;20021;-65
2022/07/11 01:36:01;;;;;;;19.17;7.53;;;;;;;14.28;100.00;102220.22;5050009;28;20021;-63
2022/07/11 01:38:26;;;;;;;19.92;7.57;;;;;;;14.19;100.00;102208.56;5050713;28;20025;-64
2022/07/11 01:40:52;;;;;;;19.77;7.15;;;;;;;14.21;100.00;102210.38;5051282;28;20037;-64
2022/07/11 01:43:17;;;;;;;20.17;7.78;;;;;;;14.19;100.00;102212.09;5050914;28;20032;-64
2022/07/11 01:45:42;;;;;;;18.95;7.40;;;;;;;14.17;100.00;102207.63;5051024;28;20958;-64
2022/07/11 01:48:08;;;;;;;19.63;7.80;;;;;;;14.23;100.00;102213.06;5051256;28;20025;-66
2022/07/11 01:50:33;;;;;;;19.45;7.38;;;;;;;14.15;100.00;102222.69;5050786;28;20059;-66
2022/07/11 01:52:59;;;;;;;20.33;8.20;;;;;;;14.01;100.00;102218.13;5048458;28;20116;-65
2022/07/11 01:55:24;;;;;;;20.15;8.05;;;;;;;13.93;100.00;102227.75;5051516;28;20045;-66
2022/07/11 01:57:49;;;;;;;20.67;8.30;;;;;;;13.88;100.00;102227.72;5050693;28;20041;-63
2022/07/11 02:00:14;;;;;;;21.35;8.27;;;;;;;13.92;100.00;102224.22;5050917;28;20411;-64
2022/07/11 02:02:40;;;;;;;19.67;7.82;;;;;;;13.93;100.00;102227.75;5050233;28;20033;-63
2022/07/11 02:05:05;;;;;;;19.27;7.88;;;;;;;13.85;100.00;102234.72;5050362;28;20032;-65
2022/07/11 02:10:14;;;;;;;20.15;7.95;;;;;;;13.79;100.00;102232.91;5051102;28;20123;-64
2022/07/11 02:12:40;;;;;;;20.25;8.25;;;;;;;13.77;100.00;102231.97;5050684;28;20048;-66
2022/07/11 02:15:05;;;;;;;20.08;7.82;;;;;;;13.78;100.00;102225.81;5050300;28;20029;-65
2022/07/11 02:17:31;;;;;;;20.08;7.80;;;;;;;13.77;100.00;102224.00;5050565;28;20029;-64
2022/07/11 02:19:57;;;;;;;19.38;7.68;;;;;;;13.74;100.00;102219.53;5050831;28;20414;-63
2022/07/11 02:22:22;;;;;;;19.70;7.10;;;;;;;13.82;100.00;102218.75;5050459;28;20025;-66
2022/07/11 02:24:48;;;;;;;19.63;7.72;;;;;;;13.85;100.00;102218.78;5050932;28;20025;-66
2022/07/11 02:27:13;;;;;;;19.85;7.78;;;;;;;13.87;100.00;102215.28;5050965;28;20056;-64
2022/07/11 02:29:38;;;;;;;20.90;8.40;;;;;;;13.87;100.00;102225.03;5050321;28;20104;-63
2022/07/11 02:32:04;;;;;;;20.63;8.75;;;;;;;13.86;100.00;102224.16;5050851;28;20490;-66
2022/07/11 02:34:30;;;;;;;21.83;8.65;;;;;;;13.81;100.00;102220.53;5049405;28;20029;-64
2022/07/11 02:36:56;;;;;;;21.20;9.13;;;;;;;13.86;100.00;102217.91;5050571;28;20060;-65
2022/07/11 02:39:21;;;;;;;20.85;8.90;;;;;;;13.92;100.00;102216.25;5050855;28;20040;-64
2022/07/11 02:41:46;;;;;;;22.38;9.65;;;;;;;13.91;100.00;102221.53;5050469;28;20036;-65
2022/07/11 02:44:11;;;;;;;22.17;9.50;;;;;;;13.91;100.00;102222.44;5049382;28;20035;-63
2022/07/11 02:46:37;;;;;;;22.45;9.50;;;;;;;13.95;100.00;102210.97;5053286;28;20502;-65
2022/07/11 02:49:02;;;;;;;21.73;9.63;;;;;;;13.92;100.00;102212.66;5054455;28;20037;-66
2022/07/11 02:51:27;;;;;;;21.92;10.07;;;;;;;13.93;100.00;102220.66;5054367;28;20040;-66
2022/07/11 02:53:53;;;;;;;21.58;9.07;;;;;;;13.95;100.00;102216.28;5054403;28;20036;-65
2022/07/11 02:56:18;;;;;;;22.63;10.32;;;;;;;14.05;100.00;102216.38;5054175;28;20036;-64
2022/07/11 02:58:43;;;;;;;22.58;10.13;;;;;;;14.12;100.00;102208.50;5053566;28;20510;-65
2022/07/11 03:01:09;;;;;;;22.33;10.00;;;;;;;14.16;100.00;102212.09;5054660;28;20029;-65
2022/07/11 03:03:34;;;;;;;23.42;9.85;;;;;;;14.21;100.00;102210.38;5053875;28;20080;-65
2022/07/11 03:06:00;;;;;;;22.73;9.48;;;;;;;14.26;100.00;102207.75;5053734;28;20037;-65
2022/07/11 03:08:25;;;;;;;21.58;9.48;;;;;;;14.26;100.00;102210.44;5053769;28;20036;-64
2022/07/11 03:10:51;;;;;;;21.83;9.35;;;;;;;14.33;100.00;102211.34;5054018;28;20108;-66
2022/07/11 03:13:16;;;;;;;22.50;9.38;;;;;;;14.39;100.00;102215.00;5053713;28;20112;-63
2022/07/11 03:15:42;;;;;;;23.98;10.50;;;;;;;14.46;100.00;102219.50;5054173;28;20112;-69
2022/07/11 03:18:07;;;;;;;23.45;10.65;;;;;;;14.49;100.00;102221.31;5054151;28;20067;-65
2022/07/11 03:20:33;;;;;;;23.80;10.57;;;;;;;14.56;100.00;102216.91;5053685;28;20025;-63
2022/07/11 03:22:58;;;;;;;21.75;9.95;;;;;;;14.58;100.00;102221.38;5053811;28;20028;-63
2022/07/11 03:25:24;;;;;;;24.13;10.70;;;;;;;14.56;100.00;102223.16;5053719;28;20029;-66
2022/07/11 03:27:49;;;;;;;24.20;10.20;;;;;;;14.64;100.00;102224.13;5053937;28;20021;-65
2022/07/11 03:30:14;;;;;;;24.75;10.23;;;;;;;14.72;100.00;102224.22;5054102;28;20036;-65
2022/07/11 03:32:40;;;;;;;23.63;10.70;;;;;;;14.73;100.00;102222.44;5053079;28;20440;-64
2022/07/11 03:37:50;;;;;;;23.95;11.60;;;;;;;14.71;100.00;102233.06;5052913;28;20067;-66
2022/07/11 03:40:15;;;;;;;24.08;12.27;;;;;;;14.70;100.00;102231.28;5053884;28;20455;-67
2022/07/11 03:42:40;;;;;;;25.10;12.23;;;;;;;14.75;100.00;102233.97;5053577;28;20084;-65
2022/07/11 03:45:06;;;;;;;24.65;12.13;;;;;;;14.81;100.00;102228.72;5053273;28;20036;-66
2022/07/11 03:47:32;;;;;;;24.98;12.23;;;;;;;14.79;100.00;102230.47;5052901;28;20064;-65
2022/07/11 03:49:57;;;;;;;24.13;12.10;;;;;;;14.84;100.00;102228.75;5053987;28;20029;-65
2022/07/11 03:52:23;;;;;;;24.17;12.10;;;;;;;14.87;100.00;102234.09;5053105;28;20025;-66
2022/07/11 03:54:48;;;;;;;25.25;12.20;;;;;;;14.79;100.00;102242.03;5053341;28;20029;-64
2022/07/11 03:57:13;;;;;;;24.50;11.88;;;;;;;14.76;100.00;102226.00;5052946;28;20100;-66
2022/07/11 03:59:39;;;;;;;28.02;12.82;;;;;;;14.72;100.00;102226.88;5052723;28;20025;-64
2022/07/11 04:02:04;;;;;;;25.58;12.23;;;;;;;14.69;100.00;102228.59;5052763;28;20023;-65
2022/07/11 04:04:29;;;;;;;24.58;11.40;;;;;;;14.77;100.00;102227.78;5052659;28;20036;-64
2022/07/11 04:06:55;;;;;;;25.08;12.05;;;;;;;14.86;100.00;102226.97;5052962;28;20094;-66
2022/07/11 04:09:20;;;;;;;24.10;11.90;;;;;;;14.89;100.00;102227.00;5051632;28;20029;-64
2022/07/11 04:11:45;;;;;;;25.48;11.80;;;;;;;14.93;100.00;102225.28;5053258;28;20024;-63
2022/07/11 04:14:11;;;;;;;24.92;11.73;;;;;;;14.89;100.00;102232.34;5052330;28;20071;-64
2022/07/11 04:16:36;;;;;;;26.08;11.85;;;;;;;14.86;100.00;102232.31;5052481;28;20395;-63
2022/07/11 04:19:01;;;;;;;22.67;11.23;;;;;;;14.89;100.00;102227.00;5053063;28;20037;-64
2022/07/11 04:21:26;;;;;;;26.50;11.68;;;;;;;14.86;100.00;102224.31;5052866;28;20028;-65
2022/07/11 04:23:52;;;;;;;24.52;11.88;;;;;;;14.85;100.00;102225.19;5052645;28;20029;-65
2022/07/11 04:26:17;;;;;;;24.02;12.18;;;;;;;14.82;100.00;102226.09;5052733;28;20365;-66
2022/07/11 04:28:43;;;;;;;25.05;11.60;;;;;;;14.84;100.00;102220.78;5052097;28;20119;-63
2022/07/11 04:31:10;;;;;;;22.90;11.63;;;;;;;14.88;100.00;102227.00;5052432;28;20021;-67
2022/07/11 04:33:35;;;;;;;24.73;11.95;;;;;;;14.95;100.00;102221.72;5052319;28;20102;-63
2022/07/11 04:36:01;;;;;;;23.23;11.20;;;;;;;14.98;100.00;102232.44;5052497;28;20087;-66
2022/07/11 04:38:26;;;;;;;24.02;10.88;;;;;;;15.05;100.00;102232.47;5052863;28;20028;-67
2022/07/11 04:40:51;;;;;;;23.63;11.02;;;;;;;15.05;100.00;102232.47;5052130;28;20029;-67
2022/07/11 04:43:17;;;;;;;23.83;11.07;;;;;;;15.11;100.00;102229.84;5051473;28;20028;-65
2022/07/11 04:45:43;;;;;;;24.42;11.13;;;;;;;15.14;100.00;102237.84;5052468;28;20029;-64
2022/07/11 04:48:08;;;;;;;22.58;11.00;;;;;;;15.13;100.00;102241.38;5052491;28;20036;-65
2022/07/11 04:50:34;;;;;;;22.80;10.45;;;;;;;15.19;100.00;102249.44;5052222;28;20025;-63
2022/07/11 04:52:59;;;;;;;22.50;10.70;;;;;;;15.23;100.00;102247.69;5051995;28;20040;-64
2022/07/11 04:55:25;;;;;;;24.23;10.77;;;;;;;15.27;100.00;102246.81;5051579;28;20449;-64
2022/07/11 04:57:51;;;;;;;23.88;10.25;;;;;;;15.32;100.00;102243.31;5051957;28;20499;-64
2022/07/11 05:00:16;;;;;;;23.42;10.20;;;;;;;15.40;100.00;102255.81;5051996;28;20031;-65
2022/07/11 05:02:42;;;;;;;23.70;9.98;;;;;;;15.43;100.00;102255.81;5051513;28;20143;-65
2022/07/11 05:05:08;;;;;;;23.58;9.98;;;;;;;15.40;100.00;102245.16;5052418;28;20459;-66
2022/07/11 05:07:33;;;;;;;22.35;10.00;;;;;;;15.36;100.00;102254.00;5051664;28;20055;-65
2022/07/11 05:09:58;;;;;;;23.42;10.02;;;;;;;15.38;100.00;102254.88;5050757;28;20021;-65
2022/07/11 05:12:24;;;;;;;22.05;9.90;;;;;;;15.37;100.00;102261.13;5051489;28;20096;-64
2022/07/11 05:14:50;;;;;;;22.52;9.57;;;;;;;15.39;100.00;102262.00;5051553;28;20025;-64
2022/07/11 05:17:15;;;;;;;21.55;9.95;;;;;;;15.42;100.00;102262.03;5051566;28;20036;-65
2022/07/11 05:19:40;;;;;;;21.98;9.52;;;;;;;15.37;100.00;102258.44;5051784;28;20051;-65
2022/07/11 05:22:06;;;;;;;20.85;9.13;;;;;;;15.41;100.00;102263.81;5051407;28;20028;-65
2022/07/11 05:24:31;;;;;;;21.90;9.45;;;;;;;15.42;100.00;102262.03;5050916;28;20075;-64
2022/07/11 05:26:56;;;;;;;22.20;9.82;;;;;;;15.48;100.00;102265.63;5050394;28;20086;-65
2022/07/11 05:29:22;;;;;;;22.77;9.93;;;;;;;15.48;100.00;102264.75;5051351;28;20436;-64
2022/07/11 05:31:50;;;;;;;23.73;10.20;;;;;;;15.47;100.00;102266.50;5051981;28;20471;-64
2022/07/11 05:34:16;;;;;;;21.80;9.95;;;;;;;15.52;100.00;102271.84;5050966;28;20028;-64
2022/07/11 05:36:43;;;;;;;22.48;9.75;;;;;;;15.63;100.00;102274.59;5050808;28;20029;-65
2022/07/11 05:39:09;;;;;;;21.58;9.63;;;;;;;15.71;100.00;102267.53;5050625;28;20036;-68
2022/07/11 05:41:34;;;;;;;22.77;10.57;;;;;;;15.67;100.00;102279.97;5051361;28;20017;-67
2022/07/11 05:43:59;;;;;;;22.13;9.70;;;;;;;15.72;100.00;102271.09;5050522;28;20075;-67
2022/07/11 05:46:25;;;;;;;23.08;9.80;;;;;;;15.78;100.00;102263.13;5050785;28;20057;-68
2022/07/11 05:48:50;;;;;;;22.05;10.00;;;;;;;15.85;100.00;102271.19;5051035;28;20387;-67
2022/07/11 05:51:16;;;;;;;22.67;10.00;;;;;;;15.89;100.00;102276.53;5051220;28;20025;-68
2022/07/11 05:53:42;;;;;;;21.67;9.70;;;;;;;15.90;100.00;102275.66;5050913;28;20114;-67
2022/07/11 05:56:07;;;;;;;24.50;10.45;;;;;;;15.92;100.00;102282.78;5050954;28;20037;-69
2022/07/11 05:58:33;;;;;;;21.98;9.50;;;;;;;15.92;100.00;102276.56;5050579;28;20508;-67
2022/07/11 06:00:58;;;;;;;22.38;9.70;;;;;;;15.98;100.00;102274.81;5051085;28;20494;-68
2022/07/11 06:03:24;;;;;;;22.15;9.88;;;;;;;16.09;100.00;102268.63;5050469;28;20063;-68
2022/07/11 06:05:49;;;;;;;24.00;9.85;;;;;;;16.15;100.00;102276.66;5051105;28;20028;-66
2022/07/11 06:10:58;;;;;;;21.25;10.00;;;;;;;16.23;100.00;102280.25;5051047;28;20028;-68
2022/07/11 06:13:24;;;;;;;21.17;9.35;;;;;;;16.24;100.00;102287.38;5051028;28;20387;-68
2022/07/11 06:15:49;;;;;;;21.33;8.50;;;;;;;16.27;100.00;102283.84;5050724;28;20021;-68
2022/07/11 06:18:14;;;;;;;22.42;9.00;;;;;;;16.28;100.00;102285.59;5049490;28;20041;-70
2022/07/11 06:20:40;;;;;;;21.77;9.13;;;;;;;16.30;100.00;102297.19;5050392;28;20031;-70
2022/07/11 06:23:06;;;;;;;20.35;9.02;;;;;;;16.33;100.00;102292.72;5049971;28;20049;-67
2022/07/11 06:25:32;;;;;;;21.30;9.18;;;;;;;16.42;100.00;102293.66;5050237;28;20464;-66
2022/07/11 06:27:57;;;;;;;21.00;8.90;;;;;;;16.50;100.00;102291.91;5049188;28;20033;-65
2022/07/11 06:30:22;;;;;;;21.35;9.32;;;;;;;16.52;100.00;102284.78;5049283;28;20032;-66
2022/07/11 06:32:48;;;;;;;20.20;8.52;;;;;;;16.61;100.00;102289.25;5050405;28;20041;-67
2022/07/11 06:35:13;;;;;;;20.25;8.40;;;;;;;16.67;100.00;102292.84;5050618;28;20480;-66
2022/07/11 06:37:38;;;;;;;19.80;7.88;;;;;;;16.70;100.00;102294.59;5050180;28;20450;-66
2022/07/11 06:40:09;;;;;;;19.35;6.90;;;;;;;16.74;100.00;102297.28;5050066;28;20115;-66
2022/07/11 06:42:36;;;;;;;19.35;6.93;;;;;;;16.76;100.00;102299.06;5050186;28;20033;-64
2022/07/11 06:45:01;;;;;;;18.48;6.43;;;;;;;16.80;100.00;102300.84;5050372;28;20021;-65
2022/07/11 06:47:26;;;;;;;16.80;6.05;;;;;;;16.84;100.00;102305.31;5050517;28;20037;-65
2022/07/11 06:49:52;;;;;;;18.10;6.40;;;;;;;16.91;100.00;102307.16;5049869;28;20671;-63
2022/07/11 06:52:17;;;;;;;19.42;6.60;;;;;;;17.01;100.00;102302.72;5050222;28;20091;-63
2022/07/11 06:54:42;;;;;;;17.55;6.13;;;;;;;17.16;100.00;102293.81;5049504;28;20032;-65
2022/07/11 06:57:08;;;;;;;17.20;6.10;;;;;;;17.25;100.00;102294.66;5050320;28;20144;-67
2022/07/11 06:59:33;;;;;;;18.75;6.07;;;;;;;17.28;100.00;102293.78;5050319;28;20029;-65
2022/07/11 07:01:59;;;;;;;18.60;6.22;;;;;;;17.35;100.00;102295.56;5050451;28;20032;-64
2022/07/11 07:04:25;;;;;;;17.60;5.90;;;;;;;17.42;100.00;102296.47;5049524;28;20029;-66
2022/07/11 07:06:50;;;;;;;18.05;6.18;;;;;;;17.43;100.00;102285.75;5048836;28;20040;-65
2022/07/11 07:09:15;;;;;;;17.80;6.20;;;;;;;17.49;100.00;102287.53;5050439;28;20114;-66
2022/07/11 07:11:40;;;;;;;18.50;6.47;;;;;;;17.52;100.00;102281.31;5050177;28;20025;-65
2022/07/11 07:14:06;;;;;;;17.15;6.00;;;;;;;17.55;100.00;102286.63;5049680;28;20029;-66
2022/07/11 07:16:32;;;;;;;18.08;5.50;;;;;;;17.67;100.00;102291.94;5049692;28;20112;-63
2022/07/11 07:18:57;;;;;;;18.48;6.15;;;;;;;17.69;100.00;102290.19;5050141;28;20025;-66
2022/07/11 07:21:23;;;;;;;18.08;5.93;;;;;;;17.78;100.00;102287.47;5049576;28;20127;-64
2022/07/11 07:23:48;;;;;;;18.40;6.50;;;;;;;17.93;100.00;102285.66;5049781;28;20124;-65
2022/07/11 07:26:14;;;;;;;18.15;6.03;;;;;;;18.10;100.00;102281.16;5050160;28;20029;-66
2022/07/11 07:28:39;;;;;;;18.05;6.05;;;;;;;18.27;100.00;102277.50;5049850;28;20037;-63
2022/07/11 07:31:05;;;;;;;18.98;6.10;;;;;;;18.50;100.00;102273.81;5049501;28;20064;-63
2022/07/11 07:33:30;;;;;;;18.42;6.38;;;;;;;18.71;100.00;102278.13;5052365;28;20036;-63
2022/07/11 07:35:56;;;;;;;17.77;6.20;;;;;;;18.84;100.00;102276.25;5053513;28;20060;-63
2022/07/11 07:38:21;;;;;;;18.35;6.50;;;;;;;18.75;100.00;102279.88;5053513;28;20037;-64
2022/07/11 07:40:46;;;;;;;19.00;6.65;;;;;;;18.72;100.00;102275.44;5053701;28;20095;-64
2022/07/11 07:43:12;;;;;;;18.75;6.30;;;;;;;18.76;100.00;102270.97;5053098;28;20111;-64
2022/07/11 07:45:37;;;;;;;17.83;6.18;;;;;;;18.90;100.00;102279.81;5053129;28;20035;-64
2022/07/11 07:48:03;;;;;;;17.92;5.78;;;;;;;19.05;100.00;102284.16;5053475;28;20083;-64
2022/07/11 07:50:28;;;;;;;17.25;5.60;;;;;;;19.11;100.00;102300.16;5053322;28;20025;-65
2022/07/11 07:52:54;;;;;;;17.13;5.55;;;;;;;19.30;100.00;102291.97;5053546;28;20112;-67
2022/07/11 07:55:19;;;;;;;15.85;5.18;;;;;;;19.40;100.00;102288.31;5052854;28;20099;-65
2022/07/11 07:57:45;;;;;;;13.82;4.25;;;;;;;19.47;100.00;102292.72;5050564;28;20044;-66
2022/07/11 08:02:54;;;;;;;17.10;5.43;;;;;;;19.89;100.00;102299.44;5053290;28;20561;-66
2022/07/11 08:05:20;;;;;;;17.52;5.80;;;;;;;19.94;100.00;102297.59;5052788;28;20053;-65
2022/07/11 08:07:46;;;;;;;16.50;5.10;;;;;;;19.88;100.00;102303.03;5053367;28;20021;-66
2022/07/11 08:10:12;;;;;;;14.75;4.65;;;;;;;19.88;100.00;102300.34;5052807;28;20383;-66
2022/07/11 08:12:38;;;;;;;17.60;5.22;;;;;;;19.84;100.00;102297.69;5051074;28;20033;-65
2022/07/11 08:15:04;;;;;;;15.82;5.05;;;;;;;19.92;100.00;102294.03;5052882;28;20036;-66
2022/07/11 08:17:29;;;;;;;16.48;5.30;;;;;;;19.85;100.00;102299.47;5053143;28;20029;-65
2022/07/11 08:19:55;;;;;;;17.38;5.50;;;;;;;19.75;100.00;102302.25;5052756;28;20035;-66
2022/07/11 08:22:20;;;;;;;16.60;5.50;;;;;;;19.81;100.00;102295.06;5052224;28;20044;-65
2022/07/11 08:24:45;;;;;;;14.50;4.50;;;;;;;19.89;100.00;102299.44;5052595;28;20464;-65
2022/07/11 08:27:11;;;;;;;13.55;4.53;;;;;;;19.91;100.00;102300.34;5052033;28;20029;-65
2022/07/11 08:29:36;;;;;;;15.85;4.82;;;;;;;19.90;100.00;102298.53;5052781;28;20032;-65
2022/07/11 08:32:01;;;;;;;13.13;4.25;;;;;;;20.12;100.00;102300.03;5052679;28;20032;-66
2022/07/11 08:34:27;;;;;;;15.15;5.00;;;;;;;20.30;100.00;102303.41;5051582;28;20072;-65
2022/07/11 08:36:52;;;;;;;14.85;4.80;;;;;;;20.48;100.00;102305.84;5053056;28;20029;-65
2022/07/11 08:39:17;;;;;;;14.63;4.70;;;;;;;20.43;100.00;102305.03;5052806;28;20043;-66
2022/07/11 08:41:44;;;;;;;15.77;4.88;;;;;;;20.37;100.00;102310.47;5052359;28;20065;-65
2022/07/11 08:44:11;;;;;;;16.30;5.15;;;;;;;20.25;100.00;102305.28;5051104;28;20029;-66
2022/07/11 08:46:39;;;;;;;16.77;5.65;;;;;;;20.20;100.00;102305.34;5051836;28;20033;-66
2022/07/11 08:49:05;;;;;;;16.33;5.13;;;;;;;20.34;100.00;102305.13;5049868;28;20021;-66
2022/07/11 08:51:31;;;;;;;17.10;5.68;;;;;;;20.70;100.00;102306.44;5052721;28;20047;-66
2022/07/11 08:53:56;;;;;;;19.27;6.43;;;;;;;20.94;100.00;102308.78;5051914;28;20021;-65
2022/07/11 08:56:22;;;;;;;18.55;6.03;;;;;;;20.94;100.00;102304.31;5052029;28;20028;-66
2022/07/11 08:58:48;;;;;;;18.55;6.20;;;;;;;20.76;100.00;102305.47;5051268;28;20048;-67
2022/07/11 09:01:16;;;;;;;18.67;6.68;;;;;;;20.48;100.00;102297.78;5051367;28;20028;-65
2022/07/11 09:03:42;;;;;;;19.20;6.32;;;;;;;20.34;100.00;102297.09;5051456;28;20039;-66
2022/07/11 09:06:08;;;;;;;18.35;6.97;;;;;;;20.28;100.00;102297.16;5051939;28;20080;-65
2022/07/11 09:08:34;;;;;;;38.33;9.02;;;;;;;20.15;100.00;102291.97;5052183;28;20060;-66
2022/07/11 09:11:00;;;;;;;19.55;7.10;;;;;;;20.30;100.00;102290.88;5048206;28;20028;-66
2022/07/11 09:13:30;;;;;;;18.35;6.95;;;;;;;20.77;100.00;102293.81;5050975;28;20029;-66
2022/07/11 09:16:02;;;;;;;20.70;7.53;;;;;;;21.35;100.00;102294.66;5051456;28;20379;-66
2022/07/11 09:18:33;;;;;;;19.98;8.25;;;;;;;21.47;100.00;102293.53;5052118;28;20021;-66
2022/07/11 09:26:42;;;;;;;20.85;8.63;;;;;;;22.18;100.00;102292.16;5051320;28;20388;-65
2022/07/11 09:29:12;;;;;;;20.90;8.68;;;;;;;22.43;100.00;102287.16;5051375;28;20150;-65
2022/07/11 09:31:39;;;;;;;19.30;7.93;;;;;;;22.78;98.66;102284.56;5050042;28;20044;-64
2022/07/11 09:34:08;;;;;;;20.10;7.85;;;;;;;22.89;95.22;102285.19;5051256;28;20029;-64
2022/07/11 09:36:51;;;;;;;19.92;7.60;;;;;;;23.00;97.20;102297.50;5051358;28;20044;-65
2022/07/11 09:39:18;;;;;;;20.02;8.30;;;;;;;22.68;96.32;102289.28;5050851;28;20025;-64
2022/07/11 09:41:44;;;;;;;20.90;8.15;;;;;;;22.25;98.11;102280.34;5051250;28;20021;-64
2022/07/11 09:44:17;;;;;;;19.60;8.02;;;;;;;22.01;100.00;102289.81;5050386;28;20125;-64
2022/07/11 09:46:47;;;;;;;20.83;8.10;;;;;;;22.01;100.00;102292.50;5047917;28;20131;-64
2022/07/11 09:49:14;;;;;;;22.25;8.60;;;;;;;21.85;100.00;102285.69;5048374;28;20032;-64
2022/07/11 09:51:40;;;;;;;20.17;7.85;;;;;;;21.92;100.00;102292.72;5047560;28;20029;-65
2022/07/11 09:54:07;;;;;;;20.40;8.48;;;;;;;22.06;100.00;102287.94;5050265;28;20079;-64
2022/07/11 09:56:41;;;;;;;19.52;7.32;;;;;;;22.16;100.00;102285.91;5050921;28;20017;-65
2022/07/11 09:59:09;;;;;;;19.33;7.38;;;;;;;22.19;100.00;102293.94;5050439;28;20033;-64
2022/07/11 10:01:34;;;;;;;19.60;7.80;;;;;;;22.21;100.00;102286.72;5050707;28;20025;-64
2022/07/11 10:04:00;;;;;;;19.30;7.78;;;;;;;22.23;100.00;102289.38;5050412;28;20027;-64
2022/07/11 10:06:26;;;;;;;19.52;7.20;;;;;;;22.20;100.00;102290.31;5050643;28;20528;-65
2022/07/11 10:08:52;;;;;;;20.38;7.60;;;;;;;22.09;100.00;102295.03;5050887;28;20104;-67
2022/07/11 10:11:18;;;;;;;19.35;7.57;;;;;;;21.97;100.00;102296.19;5050439;28;20154;-66
2022/07/11 10:13:44;;;;;;;20.08;7.90;;;;;;;21.93;100.00;102294.47;5049887;28;20039;-66
2022/07/11 10:16:34;;;;;;;19.40;7.53;;;;;;;22.25;100.00;102292.91;5050608;28;20037;-66
2022/07/11 10:19:14;;;;;;;20.65;8.68;;;;;;;22.36;100.00;102295.41;5048998;28;20497;-66
2022/07/11 10:21:51;;;;;;;19.02;7.28;;;;;;;22.56;99.74;102282.38;5050684;28;20056;-66
2022/07/11 10:24:28;;;;;;;19.00;7.45;;;;;;;23.08;98.56;102292.78;5050072;28;20111;-66
2022/07/11 10:27:06;;;;;;;19.15;7.55;;;;;;;23.41;95.58;102295.59;5050806;28;20171;-66
2022/07/11 10:29:37;;;;;;;19.80;7.90;;;;;;;23.46;93.58;102301.72;5048786;28;20124;-65
2022/07/11 10:32:08;;;;;;;19.73;7.88;;;;;;;23.47;91.87;102298.09;5050432;28;20078;-66
2022/07/11 10:34:34;;;;;;;19.33;7.07;;;;;;;23.62;90.71;102303.09;5049472;28;20464;-65
2022/07/11 10:37:01;;;;;;;18.55;6.93;;;;;;;23.61;90.40;102305.84;5050391;28;20035;-65
2022/07/11 10:39:27;;;;;;;18.90;6.43;;;;;;;23.67;88.40;102301.13;5050317;28;20475;-66
2022/07/11 10:42:00;;;;;;;18.20;6.60;;;;;;;23.54;90.47;102302.41;5050617;28;20079;-66
2022/07/11 10:44:28;;;;;;;17.92;6.65;;;;;;;23.60;90.25;102301.34;5046949;28;20100;-65
2022/07/11 10:46:54;;;;;;;18.70;6.32;;;;;;;23.62;89.43;102307.59;5050480;28;20137;-67
2022/07/11 10:49:48;;;;;;;18.45;6.55;;;;;;;23.92;89.95;102305.00;5050022;28;20096;-65
2022/07/11 10:52:22;;;;;;;17.83;6.20;;;;;;;24.15;87.91;102307.03;5048735;28;20024;-65
2022/07/11 10:55:12;;;;;;;17.20;5.90;;;;;;;24.62;87.87;102312.81;5049809;28;20116;-65
2022/07/11 10:57:59;;;;;;;16.35;5.68;;;;;;;24.97;83.75;102302.66;5048399;28;20144;-65
2022/07/11 11:00:24;;;;;;;16.20;5.30;;;;;;;25.22;80.00;102309.94;5049779;28;20033;-65
2022/07/11 11:03:06;;;;;;;13.75;4.88;;;;;;;25.19;82.35;102301.94;5049684;28;20029;-66
2022/07/11 11:05:48;;;;;;;16.38;5.15;;;;;;;24.90;84.02;102306.50;5048169;28;20395;-65
2022/07/11 11:10:59;;;;;;;16.67;5.57;;;;;;;24.40;84.34;102311.69;5051724;28;20033;-69
2022/07/11 11:13:25;;;;;;;15.98;5.18;;;;;;;24.16;84.65;102303.41;5053546;28;20151;-65
2022/07/11 11:15:52;;;;;;;16.25;5.30;;;;;;;23.99;86.16;102309.31;5053225;28;20017;-65
2022/07/11 11:18:23;;;;;;;16.65;5.30;;;;;;;23.81;84.98;102310.69;5053851;28;20047;-64
2022/07/11 11:23:34;;;;;;;14.95;5.10;;;;;;;23.88;86.57;102309.59;5053821;28;20480;-66
2022/07/11 11:26:07;;;;;;;16.85;5.40;;;;;;;23.94;86.15;102317.53;5053541;28;20037;-66
2022/07/11 11:28:33;;;;;;;17.40;5.82;;;;;;;24.13;85.26;102308.88;5053364;28;20396;-66